sensor_id;sensor_type;location;lat;lon;timestamp;P1;durP1;ratioP1;P2;durP2;ratioP2
69551;SDS011;63774;45.292;11.784;2023-10-19T00:00:54;7.20;;;4.60;;
69551;SDS011;63774;45.292;11.784;2023-10-19T00:03:21;7.00;;;4.60;;
69551;SDS011;63774;45.292;11.784;2023-10-19T00:05:48;6.50;;;4.30;;
69551;SDS011;63774;45.292;11.784;2023-10-19T00:08:15;6.90;;;4.40;;
69551;SDS011;63774;45.292;11.784;2023-10-19T00:10:43;5.40;;;4.20;;
69551;SDS011;63774;45.292;11.784;2023-10-19T00:13:12;7.00;;;4.20;;
69551;SDS011;63774;45.292;11.784;2023-10-19T00:15:39;7.60;;;4.70;;
69551;SDS011;63774;45.292;11.784;2023-10-19T00:18:06;6.00;;;4.40;;
69551;SDS011;63774;45.292;11.784;2023-10-19T00:20:41;6.30;;;4.30;;
69551;SDS011;63774;45.292;11.784;2023-10-19T00:23:14;7.10;;;4.30;;
69551;SDS011;63774;45.292;11.784;2023-10-19T00:25:46;6.00;;;4.30;;
69551;SDS011;63774;45.292;11.784;2023-10-19T00:28:18;8.00;;;4.60;;
69551;SDS011;63774;45.292;11.784;2023-10-19T00:30:44;5.50;;;4.00;;
69551;SDS011;63774;45.292;11.784;2023-10-19T00:33:10;6.30;;;4.10;;
69551;SDS011;63774;45.292;11.784;2023-10-19T00:35:49;7.60;;;4.60;;
69551;SDS011;63774;45.292;11.784;2023-10-19T00:38:36;6.80;;;4.10;;
69551;SDS011;63774;45.292;11.784;2023-10-19T00:41:03;6.90;;;4.30;;
69551;SDS011;63774;45.292;11.784;2023-10-19T00:43:32;6.90;;;4.40;;
69551;SDS011;63774;45.292;11.784;2023-10-19T00:46:12;5.90;;;4.40;;
69551;SDS011;63774;45.292;11.784;2023-10-19T00:51:13;6.40;;;4.40;;
69551;SDS011;63774;45.292;11.784;2023-10-19T00:53:58;5.40;;;3.80;;
69551;SDS011;63774;45.292;11.784;2023-10-19T00:56:25;5.90;;;4.00;;
69551;SDS011;63774;45.292;11.784;2023-10-19T00:58:57;6.10;;;3.90;;
69551;SDS011;63774;45.292;11.784;2023-10-19T01:01:50;5.60;;;3.40;;
69551;SDS011;63774;45.292;11.784;2023-10-19T01:04:28;5.50;;;4.10;;
69551;SDS011;63774;45.292;11.784;2023-10-19T01:06:58;5.40;;;3.90;;
69551;SDS011;63774;45.292;11.784;2023-10-19T01:09:30;5.50;;;4.00;;
69551;SDS011;63774;45.292;11.784;2023-10-19T01:12:01;4.60;;;3.40;;
69551;SDS011;63774;45.292;11.784;2023-10-19T01:14:59;5.40;;;3.90;;
69551;SDS011;63774;45.292;11.784;2023-10-19T01:17:36;5.50;;;3.80;;
69551;SDS011;63774;45.292;11.784;2023-10-19T01:20:06;5.40;;;3.80;;
69551;SDS011;63774;45.292;11.784;2023-10-19T01:22:51;5.40;;;3.70;;
69551;SDS011;63774;45.292;11.784;2023-10-19T01:25:35;5.40;;;3.70;;
69551;SDS011;63774;45.292;11.784;2023-10-19T01:31:07;7.20;;;4.20;;
69551;SDS011;63774;45.292;11.784;2023-10-19T01:33:33;4.80;;;3.70;;
69551;SDS011;63774;45.292;11.784;2023-10-19T01:36:00;5.40;;;4.00;;
69551;SDS011;63774;45.292;11.784;2023-10-19T01:38:44;5.20;;;3.90;;
69551;SDS011;63774;45.292;11.784;2023-10-19T01:41:12;5.40;;;3.90;;
69551;SDS011;63774;45.292;11.784;2023-10-19T01:43:41;6.00;;;3.80;;
69551;SDS011;63774;45.292;11.784;2023-10-19T01:46:08;5.50;;;3.70;;
69551;SDS011;63774;45.292;11.784;2023-10-19T01:48:41;5.80;;;4.20;;
69551;SDS011;63774;45.292;11.784;2023-10-19T01:51:09;5.70;;;3.90;;
69551;SDS011;63774;45.292;11.784;2023-10-19T01:53:41;5.30;;;4.00;;
69551;SDS011;63774;45.292;11.784;2023-10-19T01:56:14;5.70;;;3.90;;
69551;SDS011;63774;45.292;11.784;2023-10-19T01:58:42;5.80;;;4.10;;
69551;SDS011;63774;45.292;11.784;2023-10-19T02:01:09;5.60;;;4.00;;
69551;SDS011;63774;45.292;11.784;2023-10-19T02:03:38;6.70;;;4.00;;
69551;SDS011;63774;45.292;11.784;2023-10-19T02:06:08;5.50;;;3.70;;
69551;SDS011;63774;45.292;11.784;2023-10-19T02:08:51;5.00;;;3.50;;
69551;SDS011;63774;45.292;11.784;2023-10-19T02:11:26;5.90;;;3.90;;
69551;SDS011;63774;45.292;11.784;2023-10-19T02:13:56;6.40;;;3.90;;
69551;SDS011;63774;45.292;11.784;2023-10-19T02:16:29;5.70;;;3.80;;
69551;SDS011;63774;45.292;11.784;2023-10-19T02:18:55;4.50;;;3.70;;
69551;SDS011;63774;45.292;11.784;2023-10-19T02:21:21;5.60;;;4.00;;
69551;SDS011;63774;45.292;11.784;2023-10-19T02:23:59;4.40;;;3.40;;
69551;SDS011;63774;45.292;11.784;2023-10-19T02:26:24;5.30;;;3.60;;
69551;SDS011;63774;45.292;11.784;2023-10-19T02:28:53;5.70;;;3.70;;
69551;SDS011;63774;45.292;11.784;2023-10-19T02:31:20;5.40;;;3.90;;
69551;SDS011;63774;45.292;11.784;2023-10-19T02:33:47;5.60;;;4.00;;
69551;SDS011;63774;45.292;11.784;2023-10-19T02:36:17;5.20;;;3.80;;
69551;SDS011;63774;45.292;11.784;2023-10-19T02:38:45;6.10;;;4.20;;
69551;SDS011;63774;45.292;11.784;2023-10-19T02:41:17;5.40;;;3.80;;
69551;SDS011;63774;45.292;11.784;2023-10-19T02:43:44;5.80;;;3.90;;
69551;SDS011;63774;45.292;11.784;2023-10-19T02:46:12;5.00;;;3.70;;
69551;SDS011;63774;45.292;11.784;2023-10-19T02:48:39;5.40;;;3.70;;
69551;SDS011;63774;45.292;11.784;2023-10-19T02:51:10;5.50;;;4.00;;
69551;SDS011;63774;45.292;11.784;2023-10-19T02:53:37;5.50;;;3.60;;
69551;SDS011;63774;45.292;11.784;2023-10-19T02:56:13;5.60;;;3.80;;
69551;SDS011;63774;45.292;11.784;2023-10-19T02:58:42;6.10;;;3.70;;
69551;SDS011;63774;45.292;11.784;2023-10-19T03:01:26;6.90;;;4.20;;
69551;SDS011;63774;45.292;11.784;2023-10-19T03:03:56;4.80;;;3.90;;
69551;SDS011;63774;45.292;11.784;2023-10-19T03:06:29;5.80;;;3.60;;
69551;SDS011;63774;45.292;11.784;2023-10-19T03:08:59;5.20;;;3.80;;
69551;SDS011;63774;45.292;11.784;2023-10-19T03:11:39;5.30;;;4.00;;
69551;SDS011;63774;45.292;11.784;2023-10-19T03:14:06;5.90;;;4.10;;
69551;SDS011;63774;45.292;11.784;2023-10-19T03:16:32;5.00;;;4.00;;
69551;SDS011;63774;45.292;11.784;2023-10-19T03:19:00;5.20;;;4.00;;
69551;SDS011;63774;45.292;11.784;2023-10-19T03:21:25;5.70;;;3.80;;
69551;SDS011;63774;45.292;11.784;2023-10-19T03:23:57;5.00;;;3.60;;
69551;SDS011;63774;45.292;11.784;2023-10-19T03:29:05;6.10;;;3.70;;
69551;SDS011;63774;45.292;11.784;2023-10-19T03:31:37;5.60;;;3.80;;
69551;SDS011;63774;45.292;11.784;2023-10-19T03:34:08;5.90;;;3.90;;
69551;SDS011;63774;45.292;11.784;2023-10-19T03:36:35;5.40;;;4.00;;
69551;SDS011;63774;45.292;11.784;2023-10-19T03:39:01;5.00;;;3.70;;
69551;SDS011;63774;45.292;11.784;2023-10-19T03:41:36;6.10;;;4.10;;
69551;SDS011;63774;45.292;11.784;2023-10-19T03:44:04;5.70;;;3.80;;
69551;SDS011;63774;45.292;11.784;2023-10-19T03:46:29;6.30;;;3.90;;
69551;SDS011;63774;45.292;11.784;2023-10-19T03:48:56;5.30;;;3.90;;
69551;SDS011;63774;45.292;11.784;2023-10-19T03:51:36;6.10;;;3.70;;
69551;SDS011;63774;45.292;11.784;2023-10-19T03:54:05;5.10;;;3.90;;
69551;SDS011;63774;45.292;11.784;2023-10-19T03:56:48;5.30;;;3.70;;
69551;SDS011;63774;45.292;11.784;2023-10-19T03:59:14;6.20;;;4.30;;
69551;SDS011;63774;45.292;11.784;2023-10-19T04:01:41;6.50;;;4.00;;
69551;SDS011;63774;45.292;11.784;2023-10-19T04:04:08;6.30;;;4.00;;
69551;SDS011;63774;45.292;11.784;2023-10-19T04:06:34;5.20;;;3.90;;
69551;SDS011;63774;45.292;11.784;2023-10-19T04:09:00;6.40;;;4.10;;
69551;SDS011;63774;45.292;11.784;2023-10-19T04:11:26;6.00;;;3.60;;
69551;SDS011;63774;45.292;11.784;2023-10-19T04:13:58;6.20;;;3.90;;
69551;SDS011;63774;45.292;11.784;2023-10-19T04:16:28;5.60;;;3.90;;
69551;SDS011;63774;45.292;11.784;2023-10-19T04:18:54;5.30;;;3.70;;
69551;SDS011;63774;45.292;11.784;2023-10-19T04:21:19;5.30;;;3.90;;
69551;SDS011;63774;45.292;11.784;2023-10-19T04:23:45;5.80;;;3.60;;
69551;SDS011;63774;45.292;11.784;2023-10-19T04:26:12;5.70;;;4.00;;
69551;SDS011;63774;45.292;11.784;2023-10-19T04:28:40;4.60;;;3.60;;
69551;SDS011;63774;45.292;11.784;2023-10-19T04:31:15;5.70;;;3.90;;
69551;SDS011;63774;45.292;11.784;2023-10-19T04:33:41;5.60;;;3.60;;
69551;SDS011;63774;45.292;11.784;2023-10-19T04:36:10;5.60;;;3.90;;
69551;SDS011;63774;45.292;11.784;2023-10-19T04:38:39;5.20;;;3.80;;
69551;SDS011;63774;45.292;11.784;2023-10-19T04:41:08;4.90;;;3.70;;
69551;SDS011;63774;45.292;11.784;2023-10-19T04:43:38;4.80;;;3.80;;
69551;SDS011;63774;45.292;11.784;2023-10-19T04:46:07;5.40;;;3.70;;
69551;SDS011;63774;45.292;11.784;2023-10-19T04:48:40;5.80;;;3.60;;
69551;SDS011;63774;45.292;11.784;2023-10-19T04:51:07;5.60;;;3.60;;
69551;SDS011;63774;45.292;11.784;2023-10-19T04:53:34;6.30;;;4.00;;
69551;SDS011;63774;45.292;11.784;2023-10-19T04:56:00;5.50;;;4.00;;
69551;SDS011;63774;45.292;11.784;2023-10-19T04:58:29;5.30;;;3.70;;
69551;SDS011;63774;45.292;11.784;2023-10-19T05:00:55;5.50;;;3.80;;
69551;SDS011;63774;45.292;11.784;2023-10-19T05:03:23;5.60;;;3.80;;
69551;SDS011;63774;45.292;11.784;2023-10-19T05:05:49;5.10;;;3.80;;
69551;SDS011;63774;45.292;11.784;2023-10-19T05:08:15;5.40;;;3.90;;
69551;SDS011;63774;45.292;11.784;2023-10-19T05:10:40;5.60;;;3.70;;
69551;SDS011;63774;45.292;11.784;2023-10-19T05:13:07;4.70;;;3.50;;
69551;SDS011;63774;45.292;11.784;2023-10-19T05:15:32;5.20;;;3.80;;
69551;SDS011;63774;45.292;11.784;2023-10-19T05:17:59;5.30;;;3.80;;
69551;SDS011;63774;45.292;11.784;2023-10-19T05:20:25;5.60;;;3.80;;
69551;SDS011;63774;45.292;11.784;2023-10-19T05:22:51;5.60;;;3.80;;
69551;SDS011;63774;45.292;11.784;2023-10-19T05:25:16;5.00;;;3.50;;
69551;SDS011;63774;45.292;11.784;2023-10-19T05:27:41;4.70;;;3.30;;
69551;SDS011;63774;45.292;11.784;2023-10-19T05:30:11;4.80;;;3.50;;
69551;SDS011;63774;45.292;11.784;2023-10-19T05:32:36;5.80;;;4.10;;
69551;SDS011;63774;45.292;11.784;2023-10-19T05:35:02;5.40;;;3.70;;
69551;SDS011;63774;45.292;11.784;2023-10-19T05:37:30;5.20;;;3.40;;
69551;SDS011;63774;45.292;11.784;2023-10-19T05:39:56;4.90;;;3.50;;
69551;SDS011;63774;45.292;11.784;2023-10-19T05:42:22;5.30;;;3.60;;
69551;SDS011;63774;45.292;11.784;2023-10-19T05:44:48;5.20;;;3.70;;
69551;SDS011;63774;45.292;11.784;2023-10-19T05:47:13;4.60;;;3.40;;
69551;SDS011;63774;45.292;11.784;2023-10-19T05:49:39;4.90;;;3.50;;
69551;SDS011;63774;45.292;11.784;2023-10-19T05:52:04;5.10;;;3.70;;
69551;SDS011;63774;45.292;11.784;2023-10-19T05:54:29;5.20;;;3.70;;
69551;SDS011;63774;45.292;11.784;2023-10-19T05:56:55;5.40;;;3.70;;
69551;SDS011;63774;45.292;11.784;2023-10-19T05:59:21;5.60;;;3.70;;
69551;SDS011;63774;45.292;11.784;2023-10-19T06:01:48;5.10;;;3.40;;
69551;SDS011;63774;45.292;11.784;2023-10-19T06:04:14;5.50;;;3.90;;
69551;SDS011;63774;45.292;11.784;2023-10-19T06:06:39;5.50;;;3.60;;
69551;SDS011;63774;45.292;11.784;2023-10-19T06:09:05;5.50;;;3.50;;
69551;SDS011;63774;45.292;11.784;2023-10-19T06:11:33;5.30;;;3.30;;
69551;SDS011;63774;45.292;11.784;2023-10-19T06:14:01;4.50;;;3.30;;
69551;SDS011;63774;45.292;11.784;2023-10-19T06:16:27;5.40;;;3.70;;
69551;SDS011;63774;45.292;11.784;2023-10-19T06:18:54;5.50;;;3.70;;
69551;SDS011;63774;45.292;11.784;2023-10-19T06:21:20;5.50;;;3.40;;
69551;SDS011;63774;45.292;11.784;2023-10-19T06:23:45;5.50;;;3.80;;
69551;SDS011;63774;45.292;11.784;2023-10-19T06:26:11;5.00;;;3.40;;
69551;SDS011;63774;45.292;11.784;2023-10-19T06:28:37;5.40;;;3.70;;
69551;SDS011;63774;45.292;11.784;2023-10-19T06:31:05;6.00;;;3.30;;
69551;SDS011;63774;45.292;11.784;2023-10-19T06:33:30;5.20;;;3.50;;
69551;SDS011;63774;45.292;11.784;2023-10-19T06:35:58;5.20;;;3.70;;
69551;SDS011;63774;45.292;11.784;2023-10-19T06:38:24;5.90;;;3.50;;
69551;SDS011;63774;45.292;11.784;2023-10-19T06:40:51;4.10;;;3.10;;
69551;SDS011;63774;45.292;11.784;2023-10-19T06:43:16;5.40;;;3.70;;
69551;SDS011;63774;45.292;11.784;2023-10-19T06:45:44;6.30;;;3.70;;
69551;SDS011;63774;45.292;11.784;2023-10-19T06:48:09;5.30;;;3.70;;
69551;SDS011;63774;45.292;11.784;2023-10-19T06:50:36;5.50;;;3.50;;
69551;SDS011;63774;45.292;11.784;2023-10-19T06:53:02;4.90;;;3.30;;
69551;SDS011;63774;45.292;11.784;2023-10-19T06:55:30;4.40;;;3.30;;
69551;SDS011;63774;45.292;11.784;2023-10-19T06:57:56;5.00;;;3.70;;
69551;SDS011;63774;45.292;11.784;2023-10-19T07:00:22;5.60;;;3.80;;
69551;SDS011;63774;45.292;11.784;2023-10-19T07:02:52;5.00;;;3.50;;
69551;SDS011;63774;45.292;11.784;2023-10-19T07:05:21;5.50;;;3.80;;
69551;SDS011;63774;45.292;11.784;2023-10-19T07:07:47;6.10;;;4.00;;
69551;SDS011;63774;45.292;11.784;2023-10-19T07:10:14;5.10;;;3.60;;
69551;SDS011;63774;45.292;11.784;2023-10-19T07:12:43;5.30;;;3.80;;
69551;SDS011;63774;45.292;11.784;2023-10-19T07:15:10;5.80;;;3.60;;
69551;SDS011;63774;45.292;11.784;2023-10-19T07:17:42;6.00;;;4.10;;
69551;SDS011;63774;45.292;11.784;2023-10-19T07:20:09;6.20;;;3.90;;
69551;SDS011;63774;45.292;11.784;2023-10-19T07:22:54;6.20;;;4.00;;
69551;SDS011;63774;45.292;11.784;2023-10-19T07:25:28;5.50;;;3.90;;
69551;SDS011;63774;45.292;11.784;2023-10-19T07:27:54;7.60;;;4.00;;
69551;SDS011;63774;45.292;11.784;2023-10-19T07:30:20;6.70;;;4.00;;
69551;SDS011;63774;45.292;11.784;2023-10-19T07:32:51;5.40;;;3.80;;
69551;SDS011;63774;45.292;11.784;2023-10-19T07:35:21;8.00;;;4.10;;
69551;SDS011;63774;45.292;11.784;2023-10-19T07:37:51;6.50;;;4.20;;
69551;SDS011;63774;45.292;11.784;2023-10-19T07:40:17;6.50;;;4.20;;
69551;SDS011;63774;45.292;11.784;2023-10-19T07:42:46;6.10;;;4.00;;
69551;SDS011;63774;45.292;11.784;2023-10-19T07:45:14;6.30;;;4.50;;
69551;SDS011;63774;45.292;11.784;2023-10-19T07:47:40;6.70;;;4.60;;
69551;SDS011;63774;45.292;11.784;2023-10-19T07:50:07;6.10;;;4.00;;
69551;SDS011;63774;45.292;11.784;2023-10-19T07:52:37;5.70;;;3.90;;
69551;SDS011;63774;45.292;11.784;2023-10-19T07:55:04;6.30;;;4.00;;
69551;SDS011;63774;45.292;11.784;2023-10-19T07:57:31;5.90;;;3.90;;
69551;SDS011;63774;45.292;11.784;2023-10-19T07:59:57;5.60;;;3.80;;
69551;SDS011;63774;45.292;11.784;2023-10-19T08:02:23;5.90;;;4.10;;
69551;SDS011;63774;45.292;11.784;2023-10-19T08:04:50;5.30;;;3.70;;
69551;SDS011;63774;45.292;11.784;2023-10-19T08:07:16;6.20;;;4.30;;
69551;SDS011;63774;45.292;11.784;2023-10-19T08:09:42;6.10;;;3.70;;
69551;SDS011;63774;45.292;11.784;2023-10-19T08:12:09;5.10;;;4.00;;
69551;SDS011;63774;45.292;11.784;2023-10-19T08:14:35;6.20;;;4.10;;
69551;SDS011;63774;45.292;11.784;2023-10-19T08:17:01;6.10;;;4.00;;
69551;SDS011;63774;45.292;11.784;2023-10-19T08:19:27;5.60;;;3.90;;
69551;SDS011;63774;45.292;11.784;2023-10-19T08:21:53;7.00;;;4.00;;
69551;SDS011;63774;45.292;11.784;2023-10-19T08:24:18;5.40;;;3.90;;
69551;SDS011;63774;45.292;11.784;2023-10-19T08:26:46;5.30;;;3.80;;
69551;SDS011;63774;45.292;11.784;2023-10-19T08:29:12;7.20;;;4.10;;
69551;SDS011;63774;45.292;11.784;2023-10-19T08:31:41;6.60;;;3.80;;
69551;SDS011;63774;45.292;11.784;2023-10-19T08:34:10;5.00;;;3.50;;
69551;SDS011;63774;45.292;11.784;2023-10-19T08:36:36;5.20;;;3.80;;
69551;SDS011;63774;45.292;11.784;2023-10-19T08:39:04;4.80;;;3.60;;
69551;SDS011;63774;45.292;11.784;2023-10-19T08:41:31;5.60;;;4.20;;
69551;SDS011;63774;45.292;11.784;2023-10-19T08:43:59;5.50;;;3.70;;
69551;SDS011;63774;45.292;11.784;2023-10-19T08:46:29;6.20;;;3.70;;
69551;SDS011;63774;45.292;11.784;2023-10-19T08:48:55;5.00;;;3.60;;
69551;SDS011;63774;45.292;11.784;2023-10-19T08:51:22;5.30;;;3.60;;
69551;SDS011;63774;45.292;11.784;2023-10-19T08:53:51;5.10;;;3.50;;
69551;SDS011;63774;45.292;11.784;2023-10-19T08:56:19;5.60;;;3.60;;
69551;SDS011;63774;45.292;11.784;2023-10-19T08:58:45;4.80;;;3.30;;
69551;SDS011;63774;45.292;11.784;2023-10-19T09:01:11;5.00;;;3.20;;
69551;SDS011;63774;45.292;11.784;2023-10-19T09:03:37;5.20;;;3.60;;
69551;SDS011;63774;45.292;11.784;2023-10-19T09:06:04;4.70;;;3.40;;
69551;SDS011;63774;45.292;11.784;2023-10-19T09:08:30;5.20;;;3.20;;
69551;SDS011;63774;45.292;11.784;2023-10-19T09:11:08;7.40;;;3.40;;
69551;SDS011;63774;45.292;11.784;2023-10-19T09:13:47;5.00;;;3.30;;
69551;SDS011;63774;45.292;11.784;2023-10-19T09:16:17;5.50;;;3.40;;
69551;SDS011;63774;45.292;11.784;2023-10-19T09:18:43;5.20;;;3.30;;
69551;SDS011;63774;45.292;11.784;2023-10-19T09:21:10;5.10;;;3.40;;
69551;SDS011;63774;45.292;11.784;2023-10-19T09:23:46;4.70;;;3.40;;
69551;SDS011;63774;45.292;11.784;2023-10-19T09:26:12;5.70;;;3.50;;
69551;SDS011;63774;45.292;11.784;2023-10-19T09:28:39;5.70;;;3.10;;
69551;SDS011;63774;45.292;11.784;2023-10-19T09:31:05;4.50;;;3.30;;
69551;SDS011;63774;45.292;11.784;2023-10-19T09:33:34;5.20;;;3.30;;
69551;SDS011;63774;45.292;11.784;2023-10-19T09:36:00;5.00;;;3.30;;
69551;SDS011;63774;45.292;11.784;2023-10-19T09:38:29;4.40;;;3.10;;
69551;SDS011;63774;45.292;11.784;2023-10-19T09:40:55;5.00;;;2.90;;
69551;SDS011;63774;45.292;11.784;2023-10-19T09:43:35;5.30;;;3.60;;
69551;SDS011;63774;45.292;11.784;2023-10-19T09:46:06;4.40;;;3.20;;
69551;SDS011;63774;45.292;11.784;2023-10-19T09:48:34;4.40;;;3.00;;
69551;SDS011;63774;45.292;11.784;2023-10-19T09:51:07;6.50;;;4.30;;
69551;SDS011;63774;45.292;11.784;2023-10-19T09:53:34;5.20;;;3.20;;
69551;SDS011;63774;45.292;11.784;2023-10-19T09:56:02;3.90;;;2.90;;
69551;SDS011;63774;45.292;11.784;2023-10-19T09:58:33;4.40;;;2.80;;
69551;SDS011;63774;45.292;11.784;2023-10-19T10:01:02;4.20;;;2.90;;
69551;SDS011;63774;45.292;11.784;2023-10-19T10:04:02;3.80;;;2.80;;
69551;SDS011;63774;45.292;11.784;2023-10-19T10:06:29;4.40;;;3.00;;
69551;SDS011;63774;45.292;11.784;2023-10-19T10:08:56;4.10;;;2.70;;
69551;SDS011;63774;45.292;11.784;2023-10-19T10:11:26;4.70;;;3.00;;
69551;SDS011;63774;45.292;11.784;2023-10-19T10:13:54;3.90;;;2.80;;
69551;SDS011;63774;45.292;11.784;2023-10-19T10:16:21;4.00;;;2.70;;
69551;SDS011;63774;45.292;11.784;2023-10-19T10:18:50;7.20;;;3.20;;
69551;SDS011;63774;45.292;11.784;2023-10-19T10:21:21;3.60;;;2.80;;
69551;SDS011;63774;45.292;11.784;2023-10-19T10:26:19;4.60;;;2.80;;
69551;SDS011;63774;45.292;11.784;2023-10-19T10:31:49;4.20;;;2.60;;
69551;SDS011;63774;45.292;11.784;2023-10-19T10:37:09;4.20;;;2.80;;
69551;SDS011;63774;45.292;11.784;2023-10-19T10:39:37;3.90;;;2.50;;
69551;SDS011;63774;45.292;11.784;2023-10-19T10:42:05;4.00;;;2.30;;
69551;SDS011;63774;45.292;11.784;2023-10-19T10:44:50;4.10;;;2.60;;
69551;SDS011;63774;45.292;11.784;2023-10-19T10:47:21;4.10;;;2.70;;
69551;SDS011;63774;45.292;11.784;2023-10-19T10:49:53;4.30;;;2.60;;
69551;SDS011;63774;45.292;11.784;2023-10-19T10:55:13;3.80;;;2.70;;
69551;SDS011;63774;45.292;11.784;2023-10-19T10:57:40;4.00;;;2.90;;
69551;SDS011;63774;45.292;11.784;2023-10-19T11:00:07;3.20;;;2.40;;
69551;SDS011;63774;45.292;11.784;2023-10-19T11:03:04;3.80;;;2.40;;
69551;SDS011;63774;45.292;11.784;2023-10-19T11:05:35;5.20;;;2.90;;
69551;SDS011;63774;45.292;11.784;2023-10-19T11:10:38;3.80;;;2.70;;
69551;SDS011;63774;45.292;11.784;2023-10-19T11:13:07;5.80;;;3.10;;
69551;SDS011;63774;45.292;11.784;2023-10-19T11:15:35;25.30;;;6.70;;
69551;SDS011;63774;45.292;11.784;2023-10-19T11:18:06;35.00;;;8.10;;
69551;SDS011;63774;45.292;11.784;2023-10-19T11:20:32;35.50;;;8.70;;
69551;SDS011;63774;45.292;11.784;2023-10-19T11:22:58;34.60;;;7.80;;
69551;SDS011;63774;45.292;11.784;2023-10-19T11:25:27;31.90;;;7.60;;
69551;SDS011;63774;45.292;11.784;2023-10-19T11:27:57;33.70;;;7.80;;
69551;SDS011;63774;45.292;11.784;2023-10-19T11:30:24;39.70;;;7.50;;
69551;SDS011;63774;45.292;11.784;2023-10-19T11:32:50;21.70;;;6.70;;
69551;SDS011;63774;45.292;11.784;2023-10-19T11:35:22;31.90;;;6.90;;
69551;SDS011;63774;45.292;11.784;2023-10-19T11:37:49;26.80;;;7.10;;
69551;SDS011;63774;45.292;11.784;2023-10-19T11:40:16;30.50;;;7.20;;
69551;SDS011;63774;45.292;11.784;2023-10-19T11:42:42;32.90;;;7.30;;
69551;SDS011;63774;45.292;11.784;2023-10-19T11:45:08;25.70;;;6.10;;
69551;SDS011;63774;45.292;11.784;2023-10-19T11:47:33;22.00;;;6.00;;
69551;SDS011;63774;45.292;11.784;2023-10-19T11:49:59;19.30;;;6.10;;
69551;SDS011;63774;45.292;11.784;2023-10-19T11:52:25;23.50;;;5.30;;
69551;SDS011;63774;45.292;11.784;2023-10-19T11:54:50;21.00;;;5.50;;
69551;SDS011;63774;45.292;11.784;2023-10-19T11:57:17;25.50;;;6.30;;
69551;SDS011;63774;45.292;11.784;2023-10-19T11:59:42;20.60;;;5.60;;
69551;SDS011;63774;45.292;11.784;2023-10-19T12:02:09;19.70;;;5.20;;
69551;SDS011;63774;45.292;11.784;2023-10-19T12:04:34;19.40;;;5.70;;
69551;SDS011;63774;45.292;11.784;2023-10-19T12:07:01;19.00;;;5.30;;
69551;SDS011;63774;45.292;11.784;2023-10-19T12:09:28;17.80;;;5.30;;
69551;SDS011;63774;45.292;11.784;2023-10-19T12:11:55;17.10;;;4.70;;
69551;SDS011;63774;45.292;11.784;2023-10-19T12:14:21;16.90;;;5.10;;
69551;SDS011;63774;45.292;11.784;2023-10-19T12:16:47;17.00;;;5.10;;
69551;SDS011;63774;45.292;11.784;2023-10-19T12:19:12;14.00;;;5.00;;
69551;SDS011;63774;45.292;11.784;2023-10-19T12:21:39;19.20;;;4.90;;
69551;SDS011;63774;45.292;11.784;2023-10-19T12:24:07;17.50;;;4.70;;
69551;SDS011;63774;45.292;11.784;2023-10-19T12:26:35;13.90;;;4.70;;
69551;SDS011;63774;45.292;11.784;2023-10-19T12:29:00;14.10;;;4.70;;
69551;SDS011;63774;45.292;11.784;2023-10-19T12:31:26;15.90;;;4.70;;
69551;SDS011;63774;45.292;11.784;2023-10-19T12:33:51;19.40;;;5.10;;
69551;SDS011;63774;45.292;11.784;2023-10-19T12:36:17;13.90;;;4.60;;
69551;SDS011;63774;45.292;11.784;2023-10-19T12:38:52;12.50;;;4.50;;
69551;SDS011;63774;45.292;11.784;2023-10-19T12:41:18;12.30;;;4.00;;
69551;SDS011;63774;45.292;11.784;2023-10-19T12:43:44;13.00;;;4.20;;
69551;SDS011;63774;45.292;11.784;2023-10-19T12:46:11;16.40;;;4.60;;
69551;SDS011;63774;45.292;11.784;2023-10-19T12:48:39;13.80;;;4.70;;
69551;SDS011;63774;45.292;11.784;2023-10-19T12:51:07;10.60;;;4.20;;
69551;SDS011;63774;45.292;11.784;2023-10-19T12:53:34;10.20;;;3.90;;
69551;SDS011;63774;45.292;11.784;2023-10-19T12:56:01;10.70;;;4.50;;
69551;SDS011;63774;45.292;11.784;2023-10-19T12:58:28;10.10;;;3.70;;
69551;SDS011;63774;45.292;11.784;2023-10-19T13:00:54;9.80;;;3.90;;
69551;SDS011;63774;45.292;11.784;2023-10-19T13:03:21;12.20;;;4.20;;
69551;SDS011;63774;45.292;11.784;2023-10-19T13:05:48;11.90;;;3.90;;
69551;SDS011;63774;45.292;11.784;2023-10-19T13:08:14;10.80;;;3.20;;
69551;SDS011;63774;45.292;11.784;2023-10-19T13:10:44;11.80;;;4.00;;
69551;SDS011;63774;45.292;11.784;2023-10-19T13:13:14;10.70;;;4.00;;
69551;SDS011;63774;45.292;11.784;2023-10-19T13:15:40;8.90;;;3.60;;
69551;SDS011;63774;45.292;11.784;2023-10-19T13:18:07;9.70;;;3.80;;
69551;SDS011;63774;45.292;11.784;2023-10-19T13:20:38;7.60;;;3.60;;
69551;SDS011;63774;45.292;11.784;2023-10-19T13:23:08;12.80;;;4.00;;
69551;SDS011;63774;45.292;11.784;2023-10-19T13:25:37;10.10;;;4.00;;
69551;SDS011;63774;45.292;11.784;2023-10-19T13:28:26;9.10;;;3.90;;
69551;SDS011;63774;45.292;11.784;2023-10-19T13:30:53;9.10;;;3.60;;
69551;SDS011;63774;45.292;11.784;2023-10-19T13:33:19;8.40;;;3.30;;
69551;SDS011;63774;45.292;11.784;2023-10-19T13:35:46;9.80;;;3.40;;
69551;SDS011;63774;45.292;11.784;2023-10-19T13:38:16;9.10;;;3.50;;
69551;SDS011;63774;45.292;11.784;2023-10-19T13:40:44;8.10;;;3.50;;
69551;SDS011;63774;45.292;11.784;2023-10-19T13:43:10;11.00;;;3.30;;
69551;SDS011;63774;45.292;11.784;2023-10-19T13:45:41;7.70;;;3.00;;
69551;SDS011;63774;45.292;11.784;2023-10-19T13:48:08;12.90;;;3.90;;
69551;SDS011;63774;45.292;11.784;2023-10-19T13:50:40;10.30;;;3.70;;
69551;SDS011;63774;45.292;11.784;2023-10-19T13:53:07;7.70;;;3.40;;
69551;SDS011;63774;45.292;11.784;2023-10-19T13:55:34;7.20;;;3.20;;
69551;SDS011;63774;45.292;11.784;2023-10-19T13:58:04;8.80;;;3.30;;
69551;SDS011;63774;45.292;11.784;2023-10-19T14:00:29;6.60;;;3.40;;
69551;SDS011;63774;45.292;11.784;2023-10-19T14:03:05;9.40;;;3.40;;
69551;SDS011;63774;45.292;11.784;2023-10-19T14:05:35;7.30;;;3.40;;
69551;SDS011;63774;45.292;11.784;2023-10-19T14:08:03;7.50;;;3.50;;
69551;SDS011;63774;45.292;11.784;2023-10-19T14:10:29;6.40;;;3.20;;
69551;SDS011;63774;45.292;11.784;2023-10-19T14:12:56;7.00;;;3.20;;
69551;SDS011;63774;45.292;11.784;2023-10-19T14:15:21;7.20;;;3.00;;
69551;SDS011;63774;45.292;11.784;2023-10-19T14:17:48;7.50;;;3.10;;
69551;SDS011;63774;45.292;11.784;2023-10-19T14:20:14;7.80;;;3.10;;
69551;SDS011;63774;45.292;11.784;2023-10-19T14:22:42;5.90;;;3.10;;
69551;SDS011;63774;45.292;11.784;2023-10-19T14:25:14;7.70;;;3.30;;
69551;SDS011;63774;45.292;11.784;2023-10-19T14:27:42;8.00;;;3.20;;
69551;SDS011;63774;45.292;11.784;2023-10-19T14:32:39;6.60;;;3.50;;
69551;SDS011;63774;45.292;11.784;2023-10-19T14:35:07;10.10;;;3.70;;
69551;SDS011;63774;45.292;11.784;2023-10-19T14:37:36;7.50;;;3.60;;
69551;SDS011;63774;45.292;11.784;2023-10-19T14:40:38;8.50;;;3.60;;
69551;SDS011;63774;45.292;11.784;2023-10-19T14:42:57;6.40;;;3.60;;
69551;SDS011;63774;45.292;11.784;2023-10-19T14:45:26;6.50;;;3.60;;
69551;SDS011;63774;45.292;11.784;2023-10-19T14:47:55;9.40;;;3.80;;
69551;SDS011;63774;45.292;11.784;2023-10-19T14:50:29;8.80;;;3.80;;
69551;SDS011;63774;45.292;11.784;2023-10-19T14:52:55;7.20;;;3.80;;
69551;SDS011;63774;45.292;11.784;2023-10-19T14:55:20;7.40;;;3.70;;
69551;SDS011;63774;45.292;11.784;2023-10-19T14:57:50;6.30;;;3.50;;
69551;SDS011;63774;45.292;11.784;2023-10-19T15:00:19;7.20;;;3.50;;
69551;SDS011;63774;45.292;11.784;2023-10-19T15:02:49;6.30;;;3.90;;
69551;SDS011;63774;45.292;11.784;2023-10-19T15:05:16;10.20;;;3.90;;
69551;SDS011;63774;45.292;11.784;2023-10-19T15:07:42;7.10;;;3.70;;